Time;durP1;ratioP1;P1;durP2;ratioP2;P2;SDS_P1;SDS_P2;PMS_P1;PMS_P2;Temp;Humidity;BMP_temperature;BMP_pressure;BME280_temperature;BME280_humidity;BME280_pressure;Samples;Min_cycle;Max_cycle;Signal;HPM_P1;HPM_P2
2021/01/01 00:02:09;;;;;;;;;;;;;;;;;;5061960;28;19908;-68
2021/01/01 00:04:35;;;;;;;;;;;;;;;;;;5078387;28;19931;-69
2021/01/01 00:07:01;;;;;;;;;;;;;;;;;;5076122;28;19954;-69
2021/01/01 00:09:27;;;;;;;;;;;;;;;;;;5066754;28;20421;-68
2021/01/01 00:11:53;;;;;;;;;;;;;;;;;;5093845;28;19974;-68
2021/01/01 00:14:19;;;;;;;;;;;;;;;;;;5091494;28;19908;-69
2021/01/01 00:16:45;;;;;;;;;;;;;;;;;;5073331;28;19913;-67
2021/01/01 00:19:11;;;;;;;;;;;;;;;;;;5073475;28;20013;-68
2021/01/01 00:21:37;;;;;;;;;;;;;;;;;;5055361;28;20368;-68
2021/01/01 00:24:02;;;;;;;;;;;;;;;;;;5073147;28;19951;-68
2021/01/01 00:26:28;;;;;;;;;;;;;;;;;;5073397;28;19943;-68
2021/01/01 00:28:54;;;;;;;;;;;;;;;;;;5072939;28;20439;-67
2021/01/01 00:31:20;;;;;;;;;;;;;;;;;;5055218;28;19917;-69
2021/01/01 00:33:46;;;;;;;;;;;;;;;;;;5073340;28;19912;-68
2021/01/01 00:36:13;;;;;;;;;;;;;;;;;;5072504;28;19916;-66
2021/01/01 00:38:39;;;;;;;;;;;;;;;;;;5079794;28;19966;-68
2021/01/01 00:41:05;;;;;;;;;;;;;;;;;;5066722;28;19948;-68
2021/01/01 00:43:31;;;;;;;;;;;;;;;;;;5075082;28;19916;-68
2021/01/01 00:45:57;;;;;;;;;;;;;;;;;;5093040;28;19908;-68
2021/01/01 00:48:22;;;;;;;;;;;;;;;;;;5092404;28;20375;-69
2021/01/01 00:50:48;;;;;;;;;;;;;;;;;;5093192;28;19963;-68
2021/01/01 00:53:14;;;;;;;;;;;;;;;;;;5074677;28;19940;-68
2021/01/01 00:55:40;;;;;;;;;;;;;;;;;;5074633;28;20350;-69
2021/01/01 00:58:06;;;;;;;;;;;;;;;;;;5074300;28;19955;-68
2021/01/01 01:00:32;;;;;;;;;;;;;;;;;;5092730;28;19908;-68
2021/01/01 01:02:58;;;;;;;;;;;;;;;;;;5074639;28;19908;-68
2021/01/01 01:05:24;;;;;;;;;;;;;;;;;;5074592;28;19955;-68
2021/01/01 01:07:50;;;;;;;;;;;;;;;;;;5055589;28;20206;-69
2021/01/01 01:10:16;;;;;;;;;;;;;;;;;;5079809;28;19917;-68
2021/01/01 01:12:42;;;;;;;;;;;;;;;;;;5086456;28;19931;-69
2021/01/01 01:15:07;;;;;;;;;;;;;;;;;;5092680;28;19953;-68
2021/01/01 01:17:33;;;;;;;;;;;;;;;;;;5092285;28;19914;-68
2021/01/01 01:19:59;;;;;;;;;;;;;;;;;;5073495;28;19984;-68
2021/01/01 01:22:25;;;;;;;;;;;;;;;;;;5071977;28;20441;-68
2021/01/01 01:24:51;;;;;;;;;;;;;;;;;;5064281;28;20054;-68
2021/01/01 01:27:17;;;;;;;;;;;;;;;;;;5072061;28;19915;-68
2021/01/01 01:29:43;;;;;;;;;;;;;;;;;;5071939;28;20494;-68
2021/01/01 01:32:09;;;;;;;;;;;;;;;;;;5072084;28;19935;-68
2021/01/01 01:34:35;;;;;;;;;;;;;;;;;;5054031;28;19909;-68
2021/01/01 01:37:01;;;;;;;;;;;;;;;;;;5053204;28;19974;-68
2021/01/01 01:39:26;;;;;;;;;;;;;;;;;;5083394;28;19961;-68
2021/01/01 01:41:52;;;;;;;;;;;;;;;;;;5091967;28;20448;-68
2021/01/01 01:44:18;;;;;;;;;;;;;;;;;;5092003;28;19950;-68
2021/01/01 01:46:44;;;;;;;;;;;;;;;;;;5091810;28;20052;-68
2021/01/01 01:49:10;;;;;;;;;;;;;;;;;;5091846;28;20560;-68
2021/01/01 01:51:36;;;;;;;;;;;;;;;;;;5091326;28;19995;-68
2021/01/01 01:54:02;;;;;;;;;;;;;;;;;;5091789;28;19913;-68
2021/01/01 01:56:28;;;;;;;;;;;;;;;;;;5091753;28;19908;-68
2021/01/01 01:58:54;;;;;;;;;;;;;;;;;;5073476;28;19908;-68
2021/01/01 02:01:20;;;;;;;;;;;;;;;;;;5091730;28;20264;-69
2021/01/01 02:03:46;;;;;;;;;;;;;;;;;;5092072;28;19916;-68
2021/01/01 02:06:12;;;;;;;;;;;;;;;;;;5089682;28;20359;-68
2021/01/01 02:08:38;;;;;;;;;;;;;;;;;;5079346;28;19916;-68
2021/01/01 02:11:04;;;;;;;;;;;;;;;;;;5068803;28;19919;-69
2021/01/01 02:13:30;;;;;;;;;;;;;;;;;;5061259;28;19968;-68
2021/01/01 02:15:56;;;;;;;;;;;;;;;;;;5071507;28;20408;-69
2021/01/01 02:18:22;;;;;;;;;;;;;;;;;;5053090;28;20265;-69
2021/01/01 02:20:47;;;;;;;;;;;;;;;;;;5053207;28;20005;-68
2021/01/01 02:23:13;;;;;;;;;;;;;;;;;;5071422;28;20019;-68
2021/01/01 02:25:39;;;;;;;;;;;;;;;;;;5053333;28;20361;-68
2021/01/01 02:28:05;;;;;;;;;;;;;;;;;;5070606;28;20425;-68
2021/01/01 02:30:31;;;;;;;;;;;;;;;;;;5071126;28;20009;-67
2021/01/01 02:32:57;;;;;;;;;;;;;;;;;;5071165;28;19964;-68
2021/01/01 02:35:23;;;;;;;;;;;;;;;;;;5053091;28;20085;-68
2021/01/01 02:37:49;;;;;;;;;;;;;;;;;;5071116;28;19930;-68
2021/01/01 02:40:15;;;;;;;;;;;;;;;;;;5072729;28;19948;-68
2021/01/01 02:42:41;;;;;;;;;;;;;;;;;;5082843;28;19935;-68
2021/01/01 02:45:07;;;;;;;;;;;;;;;;;;5091269;28;19998;-68
2021/01/01 02:47:33;;;;;;;;;;;;;;;;;;5072988;28;19943;-68
2021/01/01 02:49:58;;;;;;;;;;;;;;;;;;5091149;28;19958;-68
2021/01/01 02:52:24;;;;;;;;;;;;;;;;;;5073110;28;19908;-68
2021/01/01 02:54:50;;;;;;;;;;;;;;;;;;5090772;28;19967;-68
2021/01/01 02:57:16;;;;;;;;;;;;;;;;;;5091059;28;19909;-69
2021/01/01 02:59:42;;;;;;;;;;;;;;;;;;5073135;28;19927;-68
2021/01/01 03:02:08;;;;;;;;;;;;;;;;;;5091030;28;20355;-68
2021/01/01 03:04:34;;;;;;;;;;;;;;;;;;5090982;28;19912;-68
2021/01/01 03:07:00;;;;;;;;;;;;;;;;;;5083055;28;19970;-69
2021/01/01 03:09:26;;;;;;;;;;;;;;;;;;5082802;28;19946;-68
2021/01/01 03:11:52;;;;;;;;;;;;;;;;;;5092819;28;19962;-68
2021/01/01 03:14:18;;;;;;;;;;;;;;;;;;5083901;28;19909;-68
2021/01/01 03:16:44;;;;;;;;;;;;;;;;;;5089589;28;20022;-68
2021/01/01 03:19:09;;;;;;;;;;;;;;;;;;5094852;28;19962;-68
2021/01/01 03:21:35;;;;;;;;;;;;;;;;;;5095503;28;19961;-69
2021/01/01 03:24:01;;;;;;;;;;;;;;;;;;5095091;28;19909;-68
2021/01/01 03:26:27;;;;;;;;;;;;;;;;;;5093336;28;19942;-68
2021/01/01 03:28:53;;;;;;;;;;;;;;;;;;5099103;28;19978;-68
2021/01/01 03:31:19;;;;;;;;;;;;;;;;;;5102028;28;20363;-69
2021/01/01 03:33:45;;;;;;;;;;;;;;;;;;5094626;28;19983;-69
2021/01/01 03:36:11;;;;;;;;;;;;;;;;;;5094763;28;19943;-69
2021/01/01 03:38:37;;;;;;;;;;;;;;;;;;5094740;28;19908;-68
2021/01/01 03:41:03;;;;;;;;;;;;;;;;;;5072268;28;19908;-71
2021/01/01 03:43:29;;;;;;;;;;;;;;;;;;5086895;28;19908;-69
2021/01/01 03:45:55;;;;;;;;;;;;;;;;;;5076510;28;19908;-70
2021/01/01 03:48:20;;;;;;;;;;;;;;;;;;5094596;28;19966;-68
2021/01/01 03:50:46;;;;;;;;;;;;;;;;;;5094782;28;20012;-68
2021/01/01 03:53:12;;;;;;;;;;;;;;;;;;5076283;28;19931;-69
2021/01/01 03:55:38;;;;;;;;;;;;;;;;;;5094128;28;19942;-69
2021/01/01 03:58:04;;;;;;;;;;;;;;;;;;5094347;28;19954;-69
2021/01/01 04:00:30;;;;;;;;;;;;;;;;;;5094641;28;19916;-69
2021/01/01 04:02:56;;;;;;;;;;;;;;;;;;5080986;28;19913;-68
2021/01/01 04:05:22;;;;;;;;;;;;;;;;;;5073948;28;19909;-68
2021/01/01 04:07:48;;;;;;;;;;;;;;;;;;5080359;28;20287;-68
2021/01/01 04:10:14;;;;;;;;;;;;;;;;;;5085524;28;19978;-67
2021/01/01 04:12:39;;;;;;;;;;;;;;;;;;5091681;28;19966;-68
2021/01/01 04:15:05;;;;;;;;;;;;;;;;;;5082979;28;20016;-68
2021/01/01 04:17:31;;;;;;;;;;;;;;;;;;5093740;28;19959;-68
2021/01/01 04:19:57;;;;;;;;;;;;;;;;;;5094070;28;20003;-69
2021/01/01 04:22:23;;;;;;;;;;;;;;;;;;5093105;28;19908;-69
2021/01/01 04:24:49;;;;;;;;;;;;;;;;;;5093994;28;19962;-68
2021/01/01 04:27:15;;;;;;;;;;;;;;;;;;5093677;28;19969;-67
2021/01/01 04:29:41;;;;;;;;;;;;;;;;;;5093747;28;20291;-68
2021/01/01 04:32:07;;;;;;;;;;;;;;;;;;5093690;28;20434;-68
2021/01/01 04:34:33;;;;;;;;;;;;;;;;;;5093776;28;20034;-69
2021/01/01 04:36:58;;;;;;;;;;;;;;;;;;5093511;28;19991;-70
2021/01/01 04:39:24;;;;;;;;;;;;;;;;;;5085265;28;19908;-67
2021/01/01 04:41:50;;;;;;;;;;;;;;;;;;5088969;28;19966;-69
2021/01/01 04:44:16;;;;;;;;;;;;;;;;;;5093446;28;20387;-69
2021/01/01 04:46:42;;;;;;;;;;;;;;;;;;5093527;28;19912;-69
2021/01/01 04:49:08;;;;;;;;;;;;;;;;;;5093215;28;19908;-68
2021/01/01 04:51:34;;;;;;;;;;;;;;;;;;5093463;28;20396;-69
2021/01/01 04:54:00;;;;;;;;;;;;;;;;;;5092754;28;19961;-68
2021/01/01 04:56:26;;;;;;;;;;;;;;;;;;5093372;28;20001;-69
2021/01/01 04:58:52;;;;;;;;;;;;;;;;;;5093190;28;20391;-69
2021/01/01 05:01:17;;;;;;;;;;;;;;;;;;5095574;28;19969;-70
2021/01/01 05:03:43;;;;;;;;;;;;;;;;;;5083164;28;19948;-69
2021/01/01 05:06:09;;;;;;;;;;;;;;;;;;5084072;28;20383;-68
2021/01/01 05:08:35;;;;;;;;;;;;;;;;;;5083593;28;19909;-69
2021/01/01 05:11:01;;;;;;;;;;;;;;;;;;5071214;28;20622;-68
2021/01/01 05:13:27;;;;;;;;;;;;;;;;;;5092616;28;19995;-69
2021/01/01 05:15:53;;;;;;;;;;;;;;;;;;5092681;28;19904;-68
2021/01/01 05:18:19;;;;;;;;;;;;;;;;;;5092308;28;19973;-68
2021/01/01 05:20:45;;;;;;;;;;;;;;;;;;5092519;28;19947;-68
2021/01/01 05:23:11;;;;;;;;;;;;;;;;;;5073865;28;20302;-68
2021/01/01 05:25:37;;;;;;;;;;;;;;;;;;5074014;28;19908;-68
2021/01/01 05:28:02;;;;;;;;;;;;;;;;;;5073986;28;19919;-68
2021/01/01 05:30:29;;;;;;;;;;;;;;;;;;5092236;28;19970;-69
2021/01/01 05:32:55;;;;;;;;;;;;;;;;;;5092406;28;20401;-69
2021/01/01 05:35:21;;;;;;;;;;;;;;;;;;5092068;28;19994;-68
2021/01/01 05:37:49;;;;;;;;;;;;;;;;;;5063709;28;20008;-68
2021/01/01 05:40:15;;;;;;;;;;;;;;;;;;5072735;28;19912;-68
2021/01/01 05:42:41;;;;;;;;;;;;;;;;;;5093354;28;20413;-68
2021/01/01 05:45:06;;;;;;;;;;;;;;;;;;5091954;28;19905;-68
2021/01/01 05:47:32;;;;;;;;;;;;;;;;;;5073609;28;19908;-68
2021/01/01 05:49:58;;;;;;;;;;;;;;;;;;5091872;28;19904;-68
2021/01/01 05:52:25;;;;;;;;;;;;;;;;;;5092022;28;19908;-69
2021/01/01 05:54:51;;;;;;;;;;;;;;;;;;5091527;28;20446;-68
2021/01/01 05:57:17;;;;;;;;;;;;;;;;;;5091787;28;19915;-68
2021/01/01 05:59:43;;;;;;;;;;;;;;;;;;5091573;28;19963;-68
2021/01/01 06:02:09;;;;;;;;;;;;;;;;;;5091676;28;20352;-69
2021/01/01 06:04:35;;;;;;;;;;;;;;;;;;5091644;28;19914;-68
2021/01/01 06:07:01;;;;;;;;;;;;;;;;;;5088619;28;19959;-69
2021/01/01 06:09:27;;;;;;;;;;;;;;;;;;5082407;28;20306;-68
2021/01/01 06:11:53;;;;;;;;;;;;;;;;;;5069322;28;19966;-68
2021/01/01 06:14:18;;;;;;;;;;;;;;;;;;5069369;28;19954;-68
2021/01/01 06:16:45;;;;;;;;;;;;;;;;;;5078501;28;20331;-69
2021/01/01 06:19:11;;;;;;;;;;;;;;;;;;5089450;28;20303;-68
2021/01/01 06:21:37;;;;;;;;;;;;;;;;;;5091432;28;19912;-68
2021/01/01 06:24:03;;;;;;;;;;;;;;;;;;5091387;28;19908;-69
2021/01/01 06:26:29;;;;;;;;;;;;;;;;;;5091421;28;20329;-69
2021/01/01 06:28:55;;;;;;;;;;;;;;;;;;5091055;28;20002;-68
2021/01/01 06:31:20;;;;;;;;;;;;;;;;;;5072907;28;20056;-68
2021/01/01 06:33:46;;;;;;;;;;;;;;;;;;5091399;28;19958;-68
2021/01/01 06:36:12;;;;;;;;;;;;;;;;;;5090546;28;20545;-68
2021/01/01 06:38:38;;;;;;;;;;;;;;;;;;5078646;28;20014;-68
2021/01/01 06:41:04;;;;;;;;;;;;;;;;;;5088687;28;20027;-69
2021/01/01 06:43:30;;;;;;;;;;;;;;;;;;5091499;28;20423;-68
2021/01/01 06:45:56;;;;;;;;;;;;;;;;;;5092147;28;19931;-69
2021/01/01 06:48:22;;;;;;;;;;;;;;;;;;5095490;28;20395;-68
2021/01/01 06:50:48;;;;;;;;;;;;;;;;;;5077076;28;19962;-69
2021/01/01 06:53:14;;;;;;;;;;;;;;;;;;5095084;28;20007;-68
2021/01/01 06:55:40;;;;;;;;;;;;;;;;;;5095148;28;19916;-68
2021/01/01 06:58:06;;;;;;;;;;;;;;;;;;5095228;28;19908;-68
2021/01/01 07:00:32;;;;;;;;;;;;;;;;;;5095196;28;19905;-68
2021/01/01 07:02:58;;;;;;;;;;;;;;;;;;5077004;28;19915;-68
2021/01/01 07:05:24;;;;;;;;;;;;;;;;;;5076626;28;20401;-68
2021/01/01 07:07:49;;;;;;;;;;;;;;;;;;5070032;28;19997;-68
2021/01/01 07:10:15;;;;;;;;;;;;;;;;;;5068368;28;20054;-68
2021/01/01 07:12:41;;;;;;;;;;;;;;;;;;5073574;28;20707;-68
2021/01/01 07:15:07;;;;;;;;;;;;;;;;;;5083767;28;19908;-68
2021/01/01 07:17:33;;;;;;;;;;;;;;;;;;5095624;28;19908;-68
2021/01/01 07:19:59;;;;;;;;;;;;;;;;;;5104945;28;19908;-69
2021/01/01 07:22:25;;;;;;;;;;;;;;;;;;5087671;28;19998;-68
2021/01/01 07:24:51;;;;;;;;;;;;;;;;;;5100088;28;19962;-68
2021/01/01 07:27:17;;;;;;;;;;;;;;;;;;5076477;28;19908;-68
2021/01/01 07:29:43;;;;;;;;;;;;;;;;;;5094308;28;19908;-69
2021/01/01 07:32:08;;;;;;;;;;;;;;;;;;5094584;28;19974;-68
2021/01/01 07:34:34;;;;;;;;;;;;;;;;;;5094356;28;19954;-68
2021/01/01 07:37:00;;;;;;;;;;;;;;;;;;5094517;28;19958;-68
2021/01/01 07:39:26;;;;;;;;;;;;;;;;;;5092196;28;19912;-69
2021/01/01 07:41:52;;;;;;;;;;;;;;;;;;5079363;28;19908;-69
2021/01/01 07:44:18;;;;;;;;;;;;;;;;;;5098337;28;19908;-69
2021/01/01 07:46:44;;;;;;;;;;;;;;;;;;5094215;28;19908;-69
2021/01/01 07:49:10;;;;;;;;;;;;;;;;;;5075607;28;19923;-68
2021/01/01 07:51:36;;;;;;;;;;;;;;;;;;5094116;28;19967;-68
2021/01/01 07:54:02;;;;;;;;;;;;;;;;;;5075599;28;19956;-68
2021/01/01 07:56:28;;;;;;;;;;;;;;;;;;5075929;28;20371;-68
2021/01/01 07:58:54;;;;;;;;;;;;;;;;;;5076007;28;19998;-69
2021/01/01 08:01:20;;;;;;;;;;;;;;;;;;5075855;28;19963;-69
2021/01/01 08:03:46;;;;;;;;;;;;;;;;;;5093865;28;19912;-69
2021/01/01 08:06:12;;;;;;;;;;;;;;;;;;5094729;28;19969;-69
2021/01/01 08:08:38;;;;;;;;;;;;;;;;;;5091659;28;19944;-69
2021/01/01 08:11:04;;;;;;;;;;;;;;;;;;5082041;28;20007;-68
2021/01/01 08:13:30;;;;;;;;;;;;;;;;;;5087558;28;19919;-69
2021/01/01 08:15:56;;;;;;;;;;;;;;;;;;5065331;28;19908;-68
2021/01/01 08:18:22;;;;;;;;;;;;;;;;;;5062280;28;20378;-69
2021/01/01 08:20:48;;;;;;;;;;;;;;;;;;5081674;28;19944;-68
2021/01/01 08:23:14;;;;;;;;;;;;;;;;;;5092242;28;20372;-68
2021/01/01 08:25:40;;;;;;;;;;;;;;;;;;5093502;28;19916;-69
2021/01/01 08:28:05;;;;;;;;;;;;;;;;;;5093409;28;19915;-69
2021/01/01 08:30:31;;;;;;;;;;;;;;;;;;5093300;28;19959;-69
2021/01/01 08:32:57;;;;;;;;;;;;;;;;;;5093554;28;20395;-69
2021/01/01 08:35:23;;;;;;;;;;;;;;;;;;5075151;28;20475;-68
2021/01/01 08:37:49;;;;;;;;;;;;;;;;;;5093219;28;19999;-68
2021/01/01 08:40:15;;;;;;;;;;;;;;;;;;5093222;28;19999;-67
2021/01/01 08:42:41;;;;;;;;;;;;;;;;;;5091698;28;19908;-68
2021/01/01 08:45:07;;;;;;;;;;;;;;;;;;5063992;28;19909;-69
2021/01/01 08:47:33;;;;;;;;;;;;;;;;;;5092903;28;19915;-68
2021/01/01 08:49:59;;;;;;;;;;;;;;;;;;5093441;28;19962;-70
2021/01/01 08:52:25;;;;;;;;;;;;;;;;;;5074972;28;20008;-69
2021/01/01 08:54:50;;;;;;;;;;;;;;;;;;5093072;28;20407;-69
2021/01/01 08:57:16;;;;;;;;;;;;;;;;;;5092917;28;19914;-68
2021/01/01 08:59:42;;;;;;;;;;;;;;;;;;5092681;28;19998;-69
2021/01/01 09:02:08;;;;;;;;;;;;;;;;;;5092617;28;20354;-68
2021/01/01 09:04:34;;;;;;;;;;;;;;;;;;5093082;28;19947;-68
2021/01/01 09:07:00;;;;;;;;;;;;;;;;;;5092903;28;19977;-68
2021/01/01 09:09:26;;;;;;;;;;;;;;;;;;5090044;28;19951;-68
2021/01/01 09:11:52;;;;;;;;;;;;;;;;;;5084292;28;20283;-69
2021/01/01 09:14:18;;;;;;;;;;;;;;;;;;5092729;28;19908;-67
2021/01/01 09:16:44;;;;;;;;;;;;;;;;;;5101949;28;19954;-69
2021/01/01 09:19:10;;;;;;;;;;;;;;;;;;5103144;28;19908;-68
2021/01/01 09:21:36;;;;;;;;;;;;;;;;;;5101390;28;19912;-68
2021/01/01 09:24:02;;;;;;;;;;;;;;;;;;5092779;28;19987;-69
2021/01/01 09:26:28;;;;;;;;;;;;;;;;;;5092238;28;19908;-68
2021/01/01 09:28:54;;;;;;;;;;;;;;;;;;5092275;28;19998;-68
2021/01/01 09:31:20;;;;;;;;;;;;;;;;;;5092078;28;19955;-68
2021/01/01 09:33:46;;;;;;;;;;;;;;;;;;5092449;28;20003;-69
2021/01/01 09:36:11;;;;;;;;;;;;;;;;;;5074135;28;20390;-68
2021/01/01 09:38:37;;;;;;;;;;;;;;;;;;5092101;28;19944;-67
2021/01/01 09:41:03;;;;;;;;;;;;;;;;;;5082814;28;20063;-69
2021/01/01 09:43:29;;;;;;;;;;;;;;;;;;5087284;28;20511;-68
2021/01/01 09:45:55;;;;;;;;;;;;;;;;;;5079774;28;20011;-68
2021/01/01 09:48:22;;;;;;;;;;;;;;;;;;5045767;28;20007;-68
2021/01/01 09:50:48;;;;;;;;;;;;;;;;;;5062011;28;19912;-68
2021/01/01 09:53:14;;;;;;;;;;;;;;;;;;5043749;28;20387;-68
2021/01/01 09:55:40;;;;;;;;;;;;;;;;;;5033944;28;20360;-69
2021/01/01 09:58:06;;;;;;;;;;;;;;;;;;5051286;28;19992;-68
2021/01/01 10:00:32;;;;;;;;;;;;;;;;;;5051577;28;20054;-69
2021/01/01 10:02:58;;;;;;;;;;;;;;;;;;5051321;28;20257;-69
2021/01/01 10:05:25;;;;;;;;;;;;;;;;;;5051557;28;19952;-68
2021/01/01 10:07:51;;;;;;;;;;;;;;;;;;5051262;28;19935;-68
2021/01/01 10:10:17;;;;;;;;;;;;;;;;;;5055820;28;19909;-68
2021/01/01 10:12:43;;;;;;;;;;;;;;;;;;5048562;28;19912;-68
2021/01/01 10:15:09;;;;;;;;;;;;;;;;;;5072535;28;20368;-68
2021/01/01 10:17:35;;;;;;;;;;;;;;;;;;5081163;28;19962;-68
2021/01/01 10:20:01;;;;;;;;;;;;;;;;;;5070442;28;20321;-68
2021/01/01 10:22:27;;;;;;;;;;;;;;;;;;5051145;28;19966;-68
2021/01/01 10:24:52;;;;;;;;;;;;;;;;;;5070862;28;19908;-68
2021/01/01 10:27:18;;;;;;;;;;;;;;;;;;5071032;28;20390;-68
2021/01/01 10:29:44;;;;;;;;;;;;;;;;;;5052983;28;20395;-69
2021/01/01 10:32:10;;;;;;;;;;;;;;;;;;5070584;28;19971;-69
2021/01/01 10:34:36;;;;;;;;;;;;;;;;;;5071231;28;19947;-66
2021/01/01 10:37:02;;;;;;;;;;;;;;;;;;5074016;28;19948;-65
2021/01/01 10:39:28;;;;;;;;;;;;;;;;;;5054691;28;19912;-69
2021/01/01 10:41:54;;;;;;;;;;;;;;;;;;5070898;28;19948;-69
2021/01/01 10:44:21;;;;;;;;;;;;;;;;;;5048742;28;20394;-70
2021/01/01 10:46:47;;;;;;;;;;;;;;;;;;5070121;28;20426;-67
2021/01/01 10:49:13;;;;;;;;;;;;;;;;;;5070601;28;19947;-67
2021/01/01 10:51:39;;;;;;;;;;;;;;;;;;5069728;28;19970;-68
2021/01/01 10:54:05;;;;;;;;;;;;;;;;;;5069682;28;20474;-67
2021/01/01 10:56:31;;;;;;;;;;;;;;;;;;5070609;28;19912;-68
2021/01/01 10:58:56;;;;;;;;;;;;;;;;;;5070604;28;19908;-68
2021/01/01 11:01:22;;;;;;;;;;;;;;;;;;5070370;28;20271;-70
2021/01/01 11:03:48;;;;;;;;;;;;;;;;;;5070664;28;20008;-69
2021/01/01 11:06:14;;;;;;;;;;;;;;;;;;5054492;28;19909;-69
2021/01/01 11:08:40;;;;;;;;;;;;;;;;;;5075137;28;20326;-68
2021/01/01 11:11:06;;;;;;;;;;;;;;;;;;5073118;28;19919;-68
2021/01/01 11:13:32;;;;;;;;;;;;;;;;;;5052563;28;19908;-69
2021/01/01 12:19:43;;;;;;;;;;;;;;;;;;5074423;28;19954;-68
2021/01/01 12:22:05;;;;;;;;;;;;;;;;;;5093907;28;20089;-68
2021/01/01 12:26:57;;;;;;;;;;;;;;;;;;5094021;28;19912;-69
2021/01/01 12:29:23;;;;;;;;;;;;;;;;;;5093350;28;19970;-68
2021/01/01 12:31:49;;;;;;;;;;;;;;;;;;5093230;28;19951;-68
2021/01/01 12:34:15;;;;;;;;;;;;;;;;;;5075647;28;19997;-69
2021/01/01 12:36:41;;;;;;;;;;;;;;;;;;5075572;28;19940;-69
2021/01/01 12:39:06;;;;;;;;;;;;;;;;;;5075104;28;20002;-67
2021/01/01 12:41:32;;;;;;;;;;;;;;;;;;5093391;28;19915;-69
2021/01/01 12:43:58;;;;;;;;;;;;;;;;;;5081480;28;19909;-69
2021/01/01 12:46:24;;;;;;;;;;;;;;;;;;5075622;28;19908;-69
2021/01/01 12:48:50;;;;;;;;;;;;;;;;;;5089973;28;19951;-69
2021/01/01 12:51:16;;;;;;;;;;;;;;;;;;5054825;28;19939;-67
2021/01/01 12:53:42;;;;;;;;;;;;;;;;;;5072738;28;19948;-68
2021/01/01 12:56:08;;;;;;;;;;;;;;;;;;5055022;28;19948;-69
2021/01/01 12:58:34;;;;;;;;;;;;;;;;;;5072497;28;19916;-68
2021/01/01 13:01:00;;;;;;;;;;;;;;;;;;5040657;28;19925;-69
2021/01/01 13:03:26;;;;;;;;;;;;;;;;;;5056646;28;19955;-68
2021/01/01 13:05:52;;;;;;;;;;;;;;;;;;5042988;28;19916;-69
2021/01/01 13:08:17;;;;;;;;;;;;;;;;;;5067849;28;19908;-68
2021/01/01 13:10:43;;;;;;;;;;;;;;;;;;5068687;28;20043;-69
2021/01/01 13:13:09;;;;;;;;;;;;;;;;;;5068419;28;19993;-70
2021/01/01 13:15:35;;;;;;;;;;;;;;;;;;5066051;28;20017;-68
2021/01/01 13:18:01;;;;;;;;;;;;;;;;;;5072252;28;20012;-69
2021/01/01 13:20:27;;;;;;;;;;;;;;;;;;5070073;28;19956;-69
2021/01/01 13:22:53;;;;;;;;;;;;;;;;;;5073022;28;19999;-68
2021/01/01 13:25:20;;;;;;;;;;;;;;;;;;5071991;28;19916;-68
2021/01/01 13:27:46;;;;;;;;;;;;;;;;;;5053825;28;19931;-68
2021/01/01 13:30:12;;;;;;;;;;;;;;;;;;5071838;28;19909;-68
2021/01/01 13:32:38;;;;;;;;;;;;;;;;;;5072024;28;19987;-68
2021/01/01 13:35:04;;;;;;;;;;;;;;;;;;5072047;28;19940;-68
2021/01/01 13:37:30;;;;;;;;;;;;;;;;;;5071319;28;19919;-68
2021/01/01 13:39:56;;;;;;;;;;;;;;;;;;5056564;28;19918;-68
2021/01/01 13:42:22;;;;;;;;;;;;;;;;;;5082903;28;20010;-68
2021/01/01 13:44:48;;;;;;;;;;;;;;;;;;5091577;28;20368;-67
2021/01/01 13:47:13;;;;;;;;;;;;;;;;;;5092184;28;19940;-68
2021/01/01 13:49:39;;;;;;;;;;;;;;;;;;5091918;28;19970;-67
2021/01/01 13:52:05;;;;;;;;;;;;;;;;;;5091663;28;19999;-68
2021/01/01 13:54:31;;;;;;;;;;;;;;;;;;5091776;28;19923;-68
2021/01/01 13:56:58;;;;;;;;;;;;;;;;;;5091998;28;20363;-68
2021/01/01 13:59:24;;;;;;;;;;;;;;;;;;5073635;28;19912;-68
2021/01/01 14:01:50;;;;;;;;;;;;;;;;;;5091808;28;19904;-68
2021/01/01 14:04:16;;;;;;;;;;;;;;;;;;5091731;28;19908;-68
2021/01/01 14:06:42;;;;;;;;;;;;;;;;;;5073509;28;19911;-68
2021/01/01 14:09:08;;;;;;;;;;;;;;;;;;5068390;28;19951;-68
2021/01/01 14:11:34;;;;;;;;;;;;;;;;;;5083077;28;20360;-68
2021/01/01 14:13:59;;;;;;;;;;;;;;;;;;5073364;28;19961;-68
2021/01/01 14:16:25;;;;;;;;;;;;;;;;;;5063810;28;19944;-68
2021/01/01 14:18:51;;;;;;;;;;;;;;;;;;5082644;28;19908;-68
2021/01/01 14:21:17;;;;;;;;;;;;;;;;;;5057786;28;19915;-68
2021/01/01 14:23:43;;;;;;;;;;;;;;;;;;5070971;28;20402;-68
2021/01/01 14:26:09;;;;;;;;;;;;;;;;;;5047097;28;19960;-68
2021/01/01 14:28:38;;;;;;;;;;;;;;;;;;5033037;28;19951;-68
2021/01/01 14:31:04;;;;;;;;;;;;;;;;;;5050605;28;20380;-68
2021/01/01 14:33:30;;;;;;;;;;;;;;;;;;5051047;28;19913;-68
2021/01/01 14:35:56;;;;;;;;;;;;;;;;;;5050890;28;19915;-68
2021/01/01 14:38:21;;;;;;;;;;;;;;;;;;5057002;28;20342;-68
2021/01/01 14:40:47;;;;;;;;;;;;;;;;;;5082709;28;19915;-68
2021/01/01 14:43:13;;;;;;;;;;;;;;;;;;5091282;28;19949;-68
2021/01/01 14:45:39;;;;;;;;;;;;;;;;;;5072745;28;19938;-69
2021/01/01 14:48:05;;;;;;;;;;;;;;;;;;5091342;28;19975;-69
2021/01/01 14:50:31;;;;;;;;;;;;;;;;;;5090876;28;19958;-68
2021/01/01 14:52:57;;;;;;;;;;;;;;;;;;5072870;28;19915;-69
2021/01/01 14:55:23;;;;;;;;;;;;;;;;;;5090591;28;20351;-68
2021/01/01 14:57:49;;;;;;;;;;;;;;;;;;5073730;28;20178;-69
2021/01/01 15:00:15;;;;;;;;;;;;;;;;;;5050484;28;19952;-68
2021/01/01 15:02:41;;;;;;;;;;;;;;;;;;5058080;28;20348;-68
2021/01/01 15:05:07;;;;;;;;;;;;;;;;;;5058772;28;19939;-68
2021/01/01 15:07:33;;;;;;;;;;;;;;;;;;5056038;28;19995;-68
2021/01/01 15:09:59;;;;;;;;;;;;;;;;;;5079932;28;19916;-68
2021/01/01 15:12:25;;;;;;;;;;;;;;;;;;5078841;28;19963;-68
2021/01/01 15:14:50;;;;;;;;;;;;;;;;;;5073157;28;20355;-68
2021/01/01 15:17:16;;;;;;;;;;;;;;;;;;5058893;28;19996;-68
2021/01/01 15:19:42;;;;;;;;;;;;;;;;;;5073876;28;19908;-69
2021/01/01 15:22:08;;;;;;;;;;;;;;;;;;5073820;28;19913;-68
2021/01/01 15:24:34;;;;;;;;;;;;;;;;;;5073794;28;20264;-68
2021/01/01 15:27:00;;;;;;;;;;;;;;;;;;5073816;28;20464;-68
2021/01/01 15:29:26;;;;;;;;;;;;;;;;;;5071461;28;19913;-68
2021/01/01 15:31:52;;;;;;;;;;;;;;;;;;5075556;28;19959;-69
2021/01/01 15:34:18;;;;;;;;;;;;;;;;;;5056024;28;19964;-68
2021/01/01 15:36:44;;;;;;;;;;;;;;;;;;5071811;28;19943;-69
2021/01/01 15:39:10;;;;;;;;;;;;;;;;;;5072993;28;20391;-69
2021/01/01 15:41:35;;;;;;;;;;;;;;;;;;5074057;28;20402;-69
2021/01/01 15:44:01;;;;;;;;;;;;;;;;;;5056139;28;19958;-68
2021/01/01 15:46:27;;;;;;;;;;;;;;;;;;5073548;28;19996;-68
2021/01/01 15:48:53;;;;;;;;;;;;;;;;;;5073449;28;20018;-68
2021/01/01 15:51:19;;;;;;;;;;;;;;;;;;5073783;28;19917;-68
2021/01/01 15:53:45;;;;;;;;;;;;;;;;;;5073012;28;19912;-68
2021/01/01 15:56:11;;;;;;;;;;;;;;;;;;5055097;28;20299;-69
2021/01/01 15:58:37;;;;;;;;;;;;;;;;;;5073460;28;19968;-68
2021/01/01 16:01:03;;;;;;;;;;;;;;;;;;5073510;28;19908;-68
2021/01/01 16:03:29;;;;;;;;;;;;;;;;;;5073326;28;19978;-68
2021/01/01 16:05:55;;;;;;;;;;;;;;;;;;5073502;28;20280;-68
2021/01/01 16:08:21;;;;;;;;;;;;;;;;;;5081446;28;20375;-69
2021/01/01 16:10:46;;;;;;;;;;;;;;;;;;5073045;28;19970;-68
2021/01/01 16:13:12;;;;;;;;;;;;;;;;;;5072897;28;19950;-68
2021/01/01 16:15:38;;;;;;;;;;;;;;;;;;5074122;28;19909;-68
2021/01/01 16:18:04;;;;;;;;;;;;;;;;;;5072384;28;19944;-69
2021/01/01 16:20:30;;;;;;;;;;;;;;;;;;5055164;28;19954;-69
2021/01/01 16:22:56;;;;;;;;;;;;;;;;;;5073208;28;20475;-68
2021/01/01 16:25:22;;;;;;;;;;;;;;;;;;5055229;28;20003;-68
2021/01/01 16:27:48;;;;;;;;;;;;;;;;;;5072959;28;19940;-68
2021/01/01 16:30:14;;;;;;;;;;;;;;;;;;5072673;28;19956;-68
2021/01/01 16:32:40;;;;;;;;;;;;;;;;;;5072510;28;19940;-69
2021/01/01 16:35:06;;;;;;;;;;;;;;;;;;5071991;28;20384;-69
2021/01/01 16:37:31;;;;;;;;;;;;;;;;;;5072267;28;19962;-68
2021/01/01 16:39:57;;;;;;;;;;;;;;;;;;5075140;28;19952;-69
2021/01/01 16:42:23;;;;;;;;;;;;;;;;;;5058252;28;19963;-69
2021/01/01 16:44:49;;;;;;;;;;;;;;;;;;5078256;28;19919;-69
2021/01/01 16:47:15;;;;;;;;;;;;;;;;;;5093224;28;19912;-68
2021/01/01 16:49:41;;;;;;;;;;;;;;;;;;5088067;28;19908;-68
2021/01/01 16:52:07;;;;;;;;;;;;;;;;;;5112223;28;19934;-69
2021/01/01 16:54:33;;;;;;;;;;;;;;;;;;5107030;28;19916;-68
2021/01/01 16:56:59;;;;;;;;;;;;;;;;;;5075192;28;19962;-68
2021/01/01 16:59:25;;;;;;;;;;;;;;;;;;5093147;28;19912;-68
2021/01/01 17:01:51;;;;;;;;;;;;;;;;;;5092988;28;19916;-68
2021/01/01 17:04:17;;;;;;;;;;;;;;;;;;5093205;28;20002;-68
2021/01/01 17:06:43;;;;;;;;;;;;;;;;;;5087283;28;20342;-68
2021/01/01 17:09:09;;;;;;;;;;;;;;;;;;5063950;28;20403;-68
2021/01/01 17:11:34;;;;;;;;;;;;;;;;;;5092544;28;19967;-68
2021/01/01 17:14:00;;;;;;;;;;;;;;;;;;5074402;28;20008;-68
2021/01/01 17:16:26;;;;;;;;;;;;;;;;;;5092429;28;19915;-68
2021/01/01 17:18:52;;;;;;;;;;;;;;;;;;5092487;28;19934;-69
2021/01/01 17:21:18;;;;;;;;;;;;;;;;;;5092328;28;20360;-68
2021/01/01 17:23:44;;;;;;;;;;;;;;;;;;5074113;28;19955;-68
2021/01/01 17:26:10;;;;;;;;;;;;;;;;;;5074071;28;19960;-68
2021/01/01 17:28:36;;;;;;;;;;;;;;;;;;5092204;28;19908;-68
2021/01/01 17:31:02;;;;;;;;;;;;;;;;;;5091700;28;19959;-69
2021/01/01 17:33:28;;;;;;;;;;;;;;;;;;5088456;28;19998;-68
2021/01/01 17:35:54;;;;;;;;;;;;;;;;;;5044505;28;19943;-70
2021/01/01 17:38:20;;;;;;;;;;;;;;;;;;5068820;28;20418;-69
2021/01/01 17:40:46;;;;;;;;;;;;;;;;;;5068827;28;19915;-69
2021/01/01 17:43:12;;;;;;;;;;;;;;;;;;5090427;28;20399;-68